<?xml version="1.0" encoding="UTF-8"?>
<gpx xmlns="http://www.topografix.com/GPX/1/1" xmlns:xsi="http://www.w3.org/2001/XMLSchema-instance" version="1.1" xsi:schemaLocation="http://www.topografix.com/GPX/1/1 http://www.topografix.com/GPX/1/1/gpx.xsd">
  <metadata>
    <name>Aquacity Challenge 2025</name>
  </metadata>
  <trk>
    <name>Aquacity Challenge 2025</name>
    <trkseg>
      <trkpt lat="46.308859" lon="16.394941">
        <ele>165.669608</ele>
        <time>2024-09-01T09:06:00.000Z</time>
      </trkpt>
      <trkpt lat="46.308406" lon="16.395707">
        <ele>165.669608</ele>
        <time>2024-09-01T09:06:08.000Z</time>
      </trkpt>
      <trkpt lat="46.308163" lon="16.396269">
        <ele>165.649896</ele>
        <time>2024-09-01T09:06:13.000Z</time>
      </trkpt>
      <trkpt lat="46.308079" lon="16.396595">
        <ele>165.631621</ele>
        <time>2024-09-01T09:06:16.000Z</time>
      </trkpt>
      <trkpt lat="46.308013" lon="16.397084">
        <ele>165.605372</ele>
        <time>2024-09-01T09:06:20.000Z</time>
      </trkpt>
      <trkpt lat="46.30799" lon="16.397778">
        <ele>165.569299</ele>
        <time>2024-09-01T09:06:25.000Z</time>
      </trkpt>
      <trkpt lat="46.308002" lon="16.398274">
        <ele>165.542633</ele>
        <time>2024-09-01T09:06:29.000Z</time>
      </trkpt>
      <trkpt lat="46.30875" lon="16.402984">
        <ele>164.991298</ele>
        <time>2024-09-01T09:07:06.000Z</time>
      </trkpt>
      <trkpt lat="46.308856" lon="16.404033">
        <ele>164.826599</ele>
        <time>2024-09-01T09:07:14.000Z</time>
      </trkpt>
      <trkpt lat="46.30888" lon="16.404877">
        <ele>164.652315</ele>
        <time>2024-09-01T09:07:20.000Z</time>
      </trkpt>
      <trkpt lat="46.308876" lon="16.405314">
        <ele>164.56057</ele>
        <time>2024-09-01T09:07:23.000Z</time>
      </trkpt>
      <trkpt lat="46.308825" lon="16.406036">
        <ele>164.412522</ele>
        <time>2024-09-01T09:07:29.000Z</time>
      </trkpt>
      <trkpt lat="46.308761" lon="16.406507">
        <ele>164.306458</ele>
        <time>2024-09-01T09:07:33.000Z</time>
      </trkpt>
      <trkpt lat="46.308678" lon="16.406976">
        <ele>164.196131</ele>
        <time>2024-09-01T09:07:37.000Z</time>
      </trkpt>
      <trkpt lat="46.308464" lon="16.407843">
        <ele>163.982844</ele>
        <time>2024-09-01T09:07:44.000Z</time>
      </trkpt>
      <trkpt lat="46.308328" lon="16.408281">
        <ele>163.873807</ele>
        <time>2024-09-01T09:07:48.000Z</time>
      </trkpt>
      <trkpt lat="46.30801" lon="16.409084">
        <ele>163.775759</ele>
        <time>2024-09-01T09:07:55.000Z</time>
      </trkpt>
      <trkpt lat="46.307836" lon="16.409448">
        <ele>163.758948</ele>
        <time>2024-09-01T09:07:58.000Z</time>
      </trkpt>
      <trkpt lat="46.307365" lon="16.410236">
        <ele>163.720697</ele>
        <time>2024-09-01T09:08:06.000Z</time>
      </trkpt>
      <trkpt lat="46.307152" lon="16.410542">
        <ele>163.704331</ele>
        <time>2024-09-01T09:08:09.000Z</time>
      </trkpt>
      <trkpt lat="46.306895" lon="16.410859">
        <ele>163.708966</ele>
        <time>2024-09-01T09:08:13.000Z</time>
      </trkpt>
      <trkpt lat="46.306698" lon="16.411132">
        <ele>163.716868</ele>
        <time>2024-09-01T09:08:16.000Z</time>
      </trkpt>
      <trkpt lat="46.306495" lon="16.411326">
        <ele>163.724626</ele>
        <time>2024-09-01T09:08:19.000Z</time>
      </trkpt>
      <trkpt lat="46.305909" lon="16.411845">
        <ele>163.745724</ele>
        <time>2024-09-01T09:08:27.000Z</time>
      </trkpt>
      <trkpt lat="46.305601" lon="16.412039">
        <ele>163.755566</ele>
        <time>2024-09-01T09:08:31.000Z</time>
      </trkpt>
      <trkpt lat="46.304955" lon="16.412351">
        <ele>163.73456</ele>
        <time>2024-09-01T09:08:39.000Z</time>
      </trkpt>
      <trkpt lat="46.304574" lon="16.412491">
        <ele>163.722082</ele>
        <time>2024-09-01T09:08:43.000Z</time>
      </trkpt>
      <trkpt lat="46.303747" lon="16.412637">
        <ele>163.700003</ele>
        <time>2024-09-01T09:08:52.000Z</time>
      </trkpt>
      <trkpt lat="46.302558" lon="16.412637">
        <ele>163.699989</ele>
        <time>2024-09-01T09:09:05.000Z</time>
      </trkpt>
      <trkpt lat="46.299371" lon="16.412477">
        <ele>163.699999</ele>
        <time>2024-09-01T09:09:40.000Z</time>
      </trkpt>
      <trkpt lat="46.29913" lon="16.412483">
        <ele>163.699988</ele>
        <time>2024-09-01T09:09:43.000Z</time>
      </trkpt>
      <trkpt lat="46.299377" lon="16.412469">
        <ele>163.7</ele>
        <time>2024-09-01T09:09:46.000Z</time>
      </trkpt>
      <trkpt lat="46.302553" lon="16.412651">
        <ele>163.699986</ele>
        <time>2024-09-01T09:10:21.000Z</time>
      </trkpt>
      <trkpt lat="46.303741" lon="16.412645">
        <ele>163.708087</ele>
        <time>2024-09-01T09:10:34.000Z</time>
      </trkpt>
      <trkpt lat="46.304575" lon="16.412489">
        <ele>163.727998</ele>
        <time>2024-09-01T09:10:43.000Z</time>
      </trkpt>
      <trkpt lat="46.304971" lon="16.41236">
        <ele>163.737601</ele>
        <time>2024-09-01T09:10:48.000Z</time>
      </trkpt>
      <trkpt lat="46.305604" lon="16.412026">
        <ele>163.735324</ele>
        <time>2024-09-01T09:10:55.000Z</time>
      </trkpt>
      <trkpt lat="46.305894" lon="16.411844">
        <ele>163.729963</ele>
        <time>2024-09-01T09:10:59.000Z</time>
      </trkpt>
      <trkpt lat="46.306504" lon="16.411337">
        <ele>163.718647</ele>
        <time>2024-09-01T09:11:07.000Z</time>
      </trkpt>
      <trkpt lat="46.306703" lon="16.411114">
        <ele>163.714487</ele>
        <time>2024-09-01T09:11:10.000Z</time>
      </trkpt>
      <trkpt lat="46.306883" lon="16.410865">
        <ele>163.715291</ele>
        <time>2024-09-01T09:11:13.000Z</time>
      </trkpt>
      <trkpt lat="46.307155" lon="16.410541">
        <ele>163.719022</ele>
        <time>2024-09-01T09:11:17.000Z</time>
      </trkpt>
      <trkpt lat="46.30736" lon="16.410235">
        <ele>163.722308</ele>
        <time>2024-09-01T09:11:20.000Z</time>
      </trkpt>
      <trkpt lat="46.307843" lon="16.40946">
        <ele>163.729956</ele>
        <time>2024-09-01T09:11:28.000Z</time>
      </trkpt>
      <trkpt lat="46.308018" lon="16.409089">
        <ele>163.74878</ele>
        <time>2024-09-01T09:11:31.000Z</time>
      </trkpt>
      <trkpt lat="46.308333" lon="16.408292">
        <ele>163.919124</ele>
        <time>2024-09-01T09:11:38.000Z</time>
      </trkpt>
      <trkpt lat="46.308462" lon="16.407856">
        <ele>164.008011</ele>
        <time>2024-09-01T09:11:42.000Z</time>
      </trkpt>
      <trkpt lat="46.308672" lon="16.406961">
        <ele>164.181887</ele>
        <time>2024-09-01T09:11:49.000Z</time>
      </trkpt>
      <trkpt lat="46.308752" lon="16.406507">
        <ele>164.285989</ele>
        <time>2024-09-01T09:11:53.000Z</time>
      </trkpt>
      <trkpt lat="46.308811" lon="16.406038">
        <ele>164.396915</ele>
        <time>2024-09-01T09:11:57.000Z</time>
      </trkpt>
      <trkpt lat="46.308867" lon="16.405324">
        <ele>164.564041</ele>
        <time>2024-09-01T09:12:03.000Z</time>
      </trkpt>
      <trkpt lat="46.308875" lon="16.404877">
        <ele>164.667602</ele>
        <time>2024-09-01T09:12:06.000Z</time>
      </trkpt>
      <trkpt lat="46.308859" lon="16.404042">
        <ele>164.845624</ele>
        <time>2024-09-01T09:12:12.000Z</time>
      </trkpt>
      <trkpt lat="46.308759" lon="16.402983">
        <ele>164.975349</ele>
        <time>2024-09-01T09:12:20.000Z</time>
      </trkpt>
      <trkpt lat="46.308014" lon="16.398272">
        <ele>165.506342</ele>
        <time>2024-09-01T09:12:57.000Z</time>
      </trkpt>
      <trkpt lat="46.307976" lon="16.397781">
        <ele>165.556052</ele>
        <time>2024-09-01T09:13:01.000Z</time>
      </trkpt>
      <trkpt lat="46.308014" lon="16.39708">
        <ele>165.623296</ele>
        <time>2024-09-01T09:13:06.000Z</time>
      </trkpt>
      <trkpt lat="46.308048" lon="16.396761">
        <ele>165.656443</ele>
        <time>2024-09-01T09:13:08.000Z</time>
      </trkpt>
      <trkpt lat="46.308067" lon="16.396605">
        <ele>165.671536</ele>
        <time>2024-09-01T09:13:09.000Z</time>
      </trkpt>
      <trkpt lat="46.308075" lon="16.396591">
        <ele>165.672242</ele>
        <time>2024-09-01T09:13:09.000Z</time>
      </trkpt>
      <trkpt lat="46.308162" lon="16.396263">
        <ele>165.597608</ele>
        <time>2024-09-01T09:13:12.000Z</time>
      </trkpt>
      <trkpt lat="46.308404" lon="16.395715">
        <ele>165.418371</ele>
        <time>2024-09-01T09:13:17.000Z</time>
      </trkpt>
      <trkpt lat="46.308798" lon="16.39507">
        <ele>165.181847</ele>
        <time>2024-09-01T09:13:24.000Z</time>
      </trkpt>
      <trkpt lat="46.308871" lon="16.394942">
        <ele>165.136564</ele>
        <time>2024-09-01T09:13:25.000Z</time>
      </trkpt>
      <trkpt lat="46.309448" lon="16.394068">
        <ele>164.975962</ele>
        <time>2024-09-01T09:13:34.000Z</time>
      </trkpt>
      <trkpt lat="46.309533" lon="16.393867">
        <ele>164.981877</ele>
        <time>2024-09-01T09:13:36.000Z</time>
      </trkpt>
      <trkpt lat="46.309703" lon="16.393409">
        <ele>164.994014</ele>
        <time>2024-09-01T09:13:40.000Z</time>
      </trkpt>
      <trkpt lat="46.309816" lon="16.392805">
        <ele>165.00933</ele>
        <time>2024-09-01T09:13:45.000Z</time>
      </trkpt>
      <trkpt lat="46.309925" lon="16.391838">
        <ele>165.067217</ele>
        <time>2024-09-01T09:13:53.000Z</time>
      </trkpt>
      <trkpt lat="46.310375" lon="16.386405">
        <ele>165.47557</ele>
        <time>2024-09-01T09:14:35.000Z</time>
      </trkpt>
      <trkpt lat="46.310545" lon="16.384104">
        <ele>165.314919</ele>
        <time>2024-09-01T09:14:53.000Z</time>
      </trkpt>
      <trkpt lat="46.31059" lon="16.382812">
        <ele>165.44145</ele>
        <time>2024-09-01T09:15:03.000Z</time>
      </trkpt>
      <trkpt lat="46.310649" lon="16.377097">
        <ele>166.96096</ele>
        <time>2024-09-01T09:15:47.000Z</time>
      </trkpt>
      <trkpt lat="46.310634" lon="16.373619">
        <ele>167.329111</ele>
        <time>2024-09-01T09:16:14.000Z</time>
      </trkpt>
      <trkpt lat="46.310681" lon="16.372582">
        <ele>167.409168</ele>
        <time>2024-09-01T09:16:22.000Z</time>
      </trkpt>
      <trkpt lat="46.310658" lon="16.372283">
        <ele>167.432418</ele>
        <time>2024-09-01T09:16:24.000Z</time>
      </trkpt>
      <trkpt lat="46.310599" lon="16.372141">
        <ele>167.443428</ele>
        <time>2024-09-01T09:16:25.000Z</time>
      </trkpt>
      <trkpt lat="46.31058" lon="16.37193">
        <ele>167.460094</ele>
        <time>2024-09-01T09:16:27.000Z</time>
      </trkpt>
      <trkpt lat="46.310611" lon="16.371674">
        <ele>167.480164</ele>
        <time>2024-09-01T09:16:29.000Z</time>
      </trkpt>
      <trkpt lat="46.310668" lon="16.371564">
        <ele>167.490407</ele>
        <time>2024-09-01T09:16:30.000Z</time>
      </trkpt>
      <trkpt lat="46.310746" lon="16.371473">
        <ele>167.498832</ele>
        <time>2024-09-01T09:16:31.000Z</time>
      </trkpt>
      <trkpt lat="46.310581" lon="16.371519">
        <ele>167.489598</ele>
        <time>2024-09-01T09:16:33.000Z</time>
      </trkpt>
      <trkpt lat="46.310571" lon="16.371518">
        <ele>167.48867</ele>
        <time>2024-09-01T09:16:33.000Z</time>
      </trkpt>
      <trkpt lat="46.310275" lon="16.371657">
        <ele>167.471393</ele>
        <time>2024-09-01T09:16:36.000Z</time>
      </trkpt>
      <trkpt lat="46.310163" lon="16.371774">
        <ele>167.463581</ele>
        <time>2024-09-01T09:16:38.000Z</time>
      </trkpt>
      <trkpt lat="46.310339" lon="16.371866">
        <ele>167.45263</ele>
        <time>2024-09-01T09:16:40.000Z</time>
      </trkpt>
      <trkpt lat="46.310374" lon="16.371879">
        <ele>167.451442</ele>
        <time>2024-09-01T09:16:40.000Z</time>
      </trkpt>
      <trkpt lat="46.310489" lon="16.371974">
        <ele>167.443333</ele>
        <time>2024-09-01T09:16:41.000Z</time>
      </trkpt>
      <trkpt lat="46.310605" lon="16.37215">
        <ele>167.433612</ele>
        <time>2024-09-01T09:16:43.000Z</time>
      </trkpt>
      <trkpt lat="46.310648" lon="16.372268">
        <ele>167.427885</ele>
        <time>2024-09-01T09:16:44.000Z</time>
      </trkpt>
      <trkpt lat="46.310679" lon="16.372576">
        <ele>167.415816</ele>
        <time>2024-09-01T09:16:46.000Z</time>
      </trkpt>
      <trkpt lat="46.310649" lon="16.373619">
        <ele>167.350581</ele>
        <time>2024-09-01T09:16:54.000Z</time>
      </trkpt>
      <trkpt lat="46.310649" lon="16.377099">
        <ele>166.921796</ele>
        <time>2024-09-01T09:17:21.000Z</time>
      </trkpt>
      <trkpt lat="46.310593" lon="16.382796">
        <ele>165.396788</ele>
        <time>2024-09-01T09:18:05.000Z</time>
      </trkpt>
      <trkpt lat="46.310552" lon="16.384106">
        <ele>165.302284</ele>
        <time>2024-09-01T09:18:15.000Z</time>
      </trkpt>
      <trkpt lat="46.310367" lon="16.386388">
        <ele>165.490266</ele>
        <time>2024-09-01T09:18:33.000Z</time>
      </trkpt>
      <trkpt lat="46.309927" lon="16.391847">
        <ele>165.119231</ele>
        <time>2024-09-01T09:19:15.000Z</time>
      </trkpt>
      <trkpt lat="46.309808" lon="16.392794">
        <ele>164.970699</ele>
        <time>2024-09-01T09:19:22.000Z</time>
      </trkpt>
      <trkpt lat="46.309695" lon="16.39342">
        <ele>164.872402</ele>
        <time>2024-09-01T09:19:27.000Z</time>
      </trkpt>
      <trkpt lat="46.309549" lon="16.393863">
        <ele>164.840747</ele>
        <time>2024-09-01T09:19:31.000Z</time>
      </trkpt>
      <trkpt lat="46.309432" lon="16.394064">
        <ele>164.903891</ele>
        <time>2024-09-01T09:19:33.000Z</time>
      </trkpt>
      <trkpt lat="46.308876" lon="16.394937">
        <ele>165.212795</ele>
        <time>2024-09-01T09:19:42.000Z</time>
      </trkpt>
      <trkpt lat="46.308792" lon="16.395063">
        <ele>165.255098</ele>
        <time>2024-09-01T09:19:43.000Z</time>
      </trkpt>
      <trkpt lat="46.308408" lon="16.395711">
        <ele>165.475948</ele>
        <time>2024-09-01T09:19:50.000Z</time>
      </trkpt>
      <trkpt lat="46.308166" lon="16.396269">
        <ele>165.503656</ele>
        <time>2024-09-01T09:19:55.000Z</time>
      </trkpt>
      <trkpt lat="46.308073" lon="16.39659">
        <ele>165.516659</ele>
        <time>2024-09-01T09:19:58.000Z</time>
      </trkpt>
      <trkpt lat="46.308085" lon="16.396591">
        <ele>165.516909</ele>
        <time>2024-09-01T09:19:58.000Z</time>
      </trkpt>
      <trkpt lat="46.308051" lon="16.396754">
        <ele>165.522676</ele>
        <time>2024-09-01T09:19:59.000Z</time>
      </trkpt>
      <trkpt lat="46.308024" lon="16.397094">
        <ele>165.535339</ele>
        <time>2024-09-01T09:20:02.000Z</time>
      </trkpt>
      <trkpt lat="46.307979" lon="16.397769">
        <ele>165.560998</ele>
        <time>2024-09-01T09:20:07.000Z</time>
      </trkpt>
      <trkpt lat="46.308017" lon="16.398271">
        <ele>165.566772</ele>
        <time>2024-09-01T09:20:11.000Z</time>
      </trkpt>
      <trkpt lat="46.308748" lon="16.40298">
        <ele>164.997206</ele>
        <time>2024-09-01T09:20:48.000Z</time>
      </trkpt>
      <trkpt lat="46.308859" lon="16.404031">
        <ele>164.816141</ele>
        <time>2024-09-01T09:20:56.000Z</time>
      </trkpt>
      <trkpt lat="46.308886" lon="16.404883">
        <ele>164.651349</ele>
        <time>2024-09-01T09:21:03.000Z</time>
      </trkpt>
      <trkpt lat="46.308877" lon="16.405329">
        <ele>164.564605</ele>
        <time>2024-09-01T09:21:06.000Z</time>
      </trkpt>
      <trkpt lat="46.308811" lon="16.406031">
        <ele>164.418031</ele>
        <time>2024-09-01T09:21:11.000Z</time>
      </trkpt>
      <trkpt lat="46.30875" lon="16.4065">
        <ele>164.305362</ele>
        <time>2024-09-01T09:21:15.000Z</time>
      </trkpt>
      <trkpt lat="46.308678" lon="16.40696">
        <ele>164.190498</ele>
        <time>2024-09-01T09:21:19.000Z</time>
      </trkpt>
      <trkpt lat="46.308466" lon="16.407849">
        <ele>163.968453</ele>
        <time>2024-09-01T09:21:26.000Z</time>
      </trkpt>
      <trkpt lat="46.308336" lon="16.408285">
        <ele>163.854929</ele>
        <time>2024-09-01T09:21:30.000Z</time>
      </trkpt>
      <trkpt lat="46.308018" lon="16.409074">
        <ele>163.7929</ele>
        <time>2024-09-01T09:21:37.000Z</time>
      </trkpt>
      <trkpt lat="46.307826" lon="16.409461">
        <ele>163.76908</ele>
        <time>2024-09-01T09:21:41.000Z</time>
      </trkpt>
      <trkpt lat="46.307366" lon="16.410229">
        <ele>163.714865</ele>
        <time>2024-09-01T09:21:49.000Z</time>
      </trkpt>
      <trkpt lat="46.307162" lon="16.410546">
        <ele>163.703413</ele>
        <time>2024-09-01T09:21:52.000Z</time>
      </trkpt>
      <trkpt lat="46.306898" lon="16.410875">
        <ele>163.714246</ele>
        <time>2024-09-01T09:21:56.000Z</time>
      </trkpt>
      <trkpt lat="46.306704" lon="16.411115">
        <ele>163.722285</ele>
        <time>2024-09-01T09:21:59.000Z</time>
      </trkpt>
      <trkpt lat="46.306499" lon="16.411333">
        <ele>163.730192</ele>
        <time>2024-09-01T09:22:02.000Z</time>
      </trkpt>
      <trkpt lat="46.305898" lon="16.411835">
        <ele>163.751688</ele>
        <time>2024-09-01T09:22:10.000Z</time>
      </trkpt>
      <trkpt lat="46.305597" lon="16.412034">
        <ele>163.750433</ele>
        <time>2024-09-01T09:22:14.000Z</time>
      </trkpt>
      <trkpt lat="46.304961" lon="16.412349">
        <ele>163.729247</ele>
        <time>2024-09-01T09:22:21.000Z</time>
      </trkpt>
      <trkpt lat="46.304569" lon="16.412493">
        <ele>163.716653</ele>
        <time>2024-09-01T09:22:25.000Z</time>
      </trkpt>
      <trkpt lat="46.303733" lon="16.412632">
        <ele>163.699993</ele>
        <time>2024-09-01T09:22:34.000Z</time>
      </trkpt>
      <trkpt lat="46.302544" lon="16.412638">
        <ele>163.699989</ele>
        <time>2024-09-01T09:22:47.000Z</time>
      </trkpt>
      <trkpt lat="46.299367" lon="16.41248">
        <ele>163.699998</ele>
        <time>2024-09-01T09:23:22.000Z</time>
      </trkpt>
      <trkpt lat="46.299135" lon="16.412484">
        <ele>163.699999</ele>
        <time>2024-09-01T09:23:25.000Z</time>
      </trkpt>
      <trkpt lat="46.299139" lon="16.412481">
        <ele>163.699998</ele>
        <time>2024-09-01T09:23:25.000Z</time>
      </trkpt>
      <trkpt lat="46.299145" lon="16.412489">
        <ele>163.699991</ele>
        <time>2024-09-01T09:23:25.000Z</time>
      </trkpt>
      <trkpt lat="46.299375" lon="16.412483">
        <ele>163.700003</ele>
        <time>2024-09-01T09:23:28.000Z</time>
      </trkpt>
      <trkpt lat="46.302545" lon="16.412651">
        <ele>163.699999</ele>
        <time>2024-09-01T09:24:03.000Z</time>
      </trkpt>
      <trkpt lat="46.303742" lon="16.412634">
        <ele>163.709653</ele>
        <time>2024-09-01T09:24:16.000Z</time>
      </trkpt>
      <trkpt lat="46.304575" lon="16.412483">
        <ele>163.724897</ele>
        <time>2024-09-01T09:24:25.000Z</time>
      </trkpt>
      <trkpt lat="46.304958" lon="16.41235">
        <ele>163.732258</ele>
        <time>2024-09-01T09:24:29.000Z</time>
      </trkpt>
      <trkpt lat="46.305606" lon="16.412025">
        <ele>163.729395</ele>
        <time>2024-09-01T09:24:37.000Z</time>
      </trkpt>
      <trkpt lat="46.305904" lon="16.411832">
        <ele>163.727682</ele>
        <time>2024-09-01T09:24:41.000Z</time>
      </trkpt>
      <trkpt lat="46.306504" lon="16.411331">
        <ele>163.724056</ele>
        <time>2024-09-01T09:24:49.000Z</time>
      </trkpt>
      <trkpt lat="46.306697" lon="16.411115">
        <ele>163.723037</ele>
        <time>2024-09-01T09:24:52.000Z</time>
      </trkpt>
      <trkpt lat="46.3069" lon="16.41086">
        <ele>163.722335</ele>
        <time>2024-09-01T09:24:55.000Z</time>
      </trkpt>
      <trkpt lat="46.307167" lon="16.410543">
        <ele>163.721415</ele>
        <time>2024-09-01T09:24:59.000Z</time>
      </trkpt>
      <trkpt lat="46.307375" lon="16.410232">
        <ele>163.720584</ele>
        <time>2024-09-01T09:25:02.000Z</time>
      </trkpt>
      <trkpt lat="46.307828" lon="16.409459">
        <ele>163.71868</ele>
        <time>2024-09-01T09:25:10.000Z</time>
      </trkpt>
      <trkpt lat="46.308009" lon="16.409081">
        <ele>163.77786</ele>
        <time>2024-09-01T09:25:14.000Z</time>
      </trkpt>
      <trkpt lat="46.308331" lon="16.408287">
        <ele>163.928006</ele>
        <time>2024-09-01T09:25:21.000Z</time>
      </trkpt>
      <trkpt lat="46.308456" lon="16.407851">
        <ele>164.006353</ele>
        <time>2024-09-01T09:25:25.000Z</time>
      </trkpt>
      <trkpt lat="46.308677" lon="16.406966">
        <ele>164.166457</ele>
        <time>2024-09-01T09:25:32.000Z</time>
      </trkpt>
      <trkpt lat="46.308749" lon="16.406493">
        <ele>164.283315</ele>
        <time>2024-09-01T09:25:36.000Z</time>
      </trkpt>
      <trkpt lat="46.308814" lon="16.406037">
        <ele>164.397922</ele>
        <time>2024-09-01T09:25:40.000Z</time>
      </trkpt>
      <trkpt lat="46.308864" lon="16.405323">
        <ele>164.570661</ele>
        <time>2024-09-01T09:25:46.000Z</time>
      </trkpt>
      <trkpt lat="46.308884" lon="16.404886">
        <ele>164.677691</ele>
        <time>2024-09-01T09:25:49.000Z</time>
      </trkpt>
      <trkpt lat="46.308857" lon="16.40403">
        <ele>164.831833</ele>
        <time>2024-09-01T09:25:56.000Z</time>
      </trkpt>
      <trkpt lat="46.308751" lon="16.402976">
        <ele>164.970842</ele>
        <time>2024-09-01T09:26:04.000Z</time>
      </trkpt>
      <trkpt lat="46.308015" lon="16.398275">
        <ele>165.549452</ele>
        <time>2024-09-01T09:26:41.000Z</time>
      </trkpt>
      <trkpt lat="46.307976" lon="16.397764">
        <ele>165.623745</ele>
        <time>2024-09-01T09:26:45.000Z</time>
      </trkpt>
      <trkpt lat="46.308011" lon="16.397094">
        <ele>165.724207</ele>
        <time>2024-09-01T09:26:50.000Z</time>
      </trkpt>
      <trkpt lat="46.308063" lon="16.396754">
        <ele>165.772297687</ele>
        <time>2024-09-01T09:26:53.000Z</time>
      </trkpt>
      <trkpt lat="46.308085" lon="16.396604">
        <ele>165.793474275</ele>
        <time>2024-09-01T09:26:54.000Z</time>
      </trkpt>
      <trkpt lat="46.308086" lon="16.396596">
        <ele>165.794597008</ele>
        <time>2024-09-01T09:26:54.000Z</time>
      </trkpt>
      <trkpt lat="46.308175" lon="16.396267">
        <ele>165.84339115</ele>
        <time>2024-09-01T09:26:57.000Z</time>
      </trkpt>
      <trkpt lat="46.308399" lon="16.395711">
        <ele>165.932278449</ele>
        <time>2024-09-01T09:27:02.000Z</time>
      </trkpt>
      <trkpt lat="46.308791" lon="16.395059">
        <ele>166.051645911</ele>
        <time>2024-09-01T09:27:09.000Z</time>
      </trkpt>
    </trkseg>
  </trk>
</gpx>

<!--
Performance optimized by W3 Total Cache. Learn more: https://www.boldgrid.com/w3-total-cache/?utm_source=w3tc&utm_medium=footer_comment&utm_campaign=free_plugin

Page Caching using Disk: Enhanced{w3tc_pagecache_reject_reason} 

Served from: www.aquabike.world @ 2026-05-07 14:03:15 by W3 Total Cache
-->